createdAt,value
2023-04-02T00:01:46.736Z,3.83
2023-04-02T00:04:26.808Z,4.07
2023-04-02T00:07:33.531Z,4.55
2023-04-02T00:09:59.954Z,4.88
2023-04-02T00:12:26.359Z,9.40
2023-04-02T00:14:54.922Z,10.25
2023-04-02T00:17:24.655Z,10.27
2023-04-02T00:20:02.305Z,6.22
2023-04-02T00:22:34.094Z,5.03
2023-04-02T00:25:08.078Z,3.70
2023-04-02T00:27:35.990Z,4.40
2023-04-02T00:30:04.072Z,3.55
2023-04-02T00:32:36.331Z,4.95
2023-04-02T00:35:04.402Z,4.53
2023-04-02T00:37:39.103Z,4.40
2023-04-02T00:40:15.287Z,4.22
2023-04-02T00:42:42.209Z,4.38
2023-04-02T00:45:30.780Z,4.10
2023-04-02T00:48:00.044Z,4.22
2023-04-02T00:50:35.781Z,4.32
2023-04-02T00:53:09.821Z,4.38
2023-04-02T00:55:40.310Z,5.45
2023-04-02T00:58:31.713Z,5.00
2023-04-02T01:00:59.198Z,5.28
2023-04-02T01:03:36.390Z,5.03
2023-04-02T01:06:14.221Z,4.57
2023-04-02T01:09:05.922Z,5.13
2023-04-02T01:11:42.013Z,4.38
2023-04-02T01:14:37.393Z,4.60
2023-04-02T01:17:12.289Z,4.90
2023-04-02T01:20:09.477Z,5.10
2023-04-02T01:22:57.991Z,6.15
2023-04-02T01:25:35.521Z,6.80
2023-04-02T01:28:21.252Z,5.35
2023-04-02T01:30:52.587Z,4.68
2023-04-02T01:33:25.309Z,4.93
2023-04-02T01:36:02.861Z,9.10
2023-04-02T01:38:55.783Z,7.28
2023-04-02T01:41:35.859Z,5.95
2023-04-02T01:44:07.965Z,7.25
2023-04-02T01:46:38.239Z,8.13
2023-04-02T01:49:13.485Z,6.63
2023-04-02T01:51:44.808Z,6.80
2023-04-02T01:54:17.066Z,7.93
2023-04-02T01:56:45.518Z,6.55
2023-04-02T01:59:14.273Z,7.85
2023-04-02T02:02:05.031Z,8.70
2023-04-02T02:04:35.060Z,4.82
2023-04-02T02:07:03.700Z,7.78
2023-04-02T02:09:35.460Z,6.47
2023-04-02T02:12:03.891Z,7.80
2023-04-02T02:14:31.639Z,6.75
2023-04-02T02:17:02.243Z,5.88
2023-04-02T02:19:35.194Z,6.00
2023-04-02T02:22:27.111Z,5.75
2023-04-02T02:24:55.690Z,5.25
2023-04-02T02:27:25.481Z,4.47
2023-04-02T02:30:09.628Z,4.35
2023-04-02T02:32:47.010Z,6.57
2023-04-02T02:35:26.749Z,5.18
2023-04-02T02:38:06.937Z,7.25
2023-04-02T02:40:40.720Z,5.22
2023-04-02T02:43:12.363Z,7.05
2023-04-02T02:45:43.107Z,6.70
2023-04-02T02:48:14.949Z,4.03
2023-04-02T02:50:42.611Z,5.97
2023-04-02T02:53:21.734Z,11.05
2023-04-02T02:55:55.515Z,8.40
2023-04-02T02:58:31.849Z,6.70
2023-04-02T03:01:16.564Z,8.43
2023-04-02T03:03:44.755Z,9.15
2023-04-02T03:06:16.681Z,8.90
2023-04-02T03:09:03.121Z,7.38
2023-04-02T03:11:47.076Z,5.82
2023-04-02T03:14:27.040Z,6.18
2023-04-02T03:17:01.080Z,6.20
2023-04-02T03:19:56.558Z,6.38
2023-04-02T03:22:35.350Z,5.75
2023-04-02T03:25:26.883Z,6.15
2023-04-02T03:28:02.898Z,4.53
2023-04-02T03:30:38.569Z,5.05
2023-04-02T03:33:22.338Z,6.18
2023-04-02T03:35:57.737Z,6.05
2023-04-02T03:38:44.618Z,6.63
2023-04-02T03:41:21.224Z,7.88
2023-04-02T03:43:54.711Z,8.50
2023-04-02T03:46:33.912Z,7.93
2023-04-02T03:49:08.245Z,7.05
2023-04-02T03:52:09.780Z,6.15
2023-04-02T03:54:38.408Z,7.38
2023-04-02T03:57:11.708Z,9.13
2023-04-02T04:02:26.658Z,7.85
2023-04-02T04:04:56.794Z,7.18
2023-04-02T04:07:36.886Z,7.05
2023-04-02T04:10:06.239Z,5.93
2023-04-02T04:12:35.887Z,5.78
2023-04-02T04:15:09.192Z,8.05
2023-04-02T04:18:01.896Z,6.05
2023-04-02T04:20:36.449Z,8.07
2023-04-02T04:23:35.829Z,6.72
2023-04-02T04:26:31.083Z,6.22
2023-04-02T04:29:25.089Z,6.43
2023-04-02T04:31:55.152Z,8.52
2023-04-02T04:34:53.289Z,11.38
2023-04-02T04:37:29.080Z,7.25
2023-04-02T04:40:00.944Z,9.68
2023-04-02T04:42:33.049Z,12.27
2023-04-02T04:45:27.588Z,8.65
2023-04-02T04:48:04.745Z,10.15
2023-04-02T04:50:55.742Z,12.85
2023-04-02T04:53:26.999Z,10.50
2023-04-02T04:56:06.031Z,9.60
2023-04-02T04:58:59.056Z,14.50
2023-04-02T05:01:45.745Z,15.83
2023-04-02T05:04:29.189Z,9.60
2023-04-02T05:07:09.889Z,15.23
2023-04-02T05:09:42.597Z,11.23
2023-04-02T05:12:41.974Z,10.57
2023-04-02T05:15:25.642Z,11.35
2023-04-02T05:18:29.886Z,15.50
2023-04-02T05:21:27.217Z,13.90
2023-04-02T05:24:20.163Z,14.02
2023-04-02T05:26:50.443Z,11.90
2023-04-02T05:29:25.754Z,15.35
2023-04-02T05:32:17.965Z,14.55
2023-04-02T05:34:51.599Z,14.43
2023-04-02T05:39:52.194Z,12.55
2023-04-02T05:42:24.052Z,10.77
2023-04-02T05:45:14.435Z,13.55
2023-04-02T05:47:44.423Z,15.55
2023-04-02T05:50:36.873Z,13.85
2023-04-02T05:53:24.431Z,14.30
2023-04-02T05:56:13.346Z,19.00
2023-04-02T05:58:54.464Z,16.02
2023-04-02T06:01:37.422Z,13.40
2023-04-02T06:07:23.227Z,14.40
2023-04-02T06:10:04.813Z,14.27
2023-04-02T06:12:46.684Z,15.15
2023-04-02T06:15:16.838Z,19.92
2023-04-02T06:17:51.080Z,15.82
2023-04-02T06:20:20.516Z,14.75
2023-04-02T06:22:55.815Z,14.27
2023-04-02T06:25:30.000Z,13.52
2023-04-02T06:28:00.473Z,18.63
2023-04-02T06:30:36.830Z,16.40
2023-04-02T06:33:05.565Z,13.93
2023-04-02T06:35:39.346Z,14.38
2023-04-02T06:38:15.951Z,10.70
2023-04-02T06:40:49.463Z,12.60
2023-04-02T06:43:43.665Z,12.00
2023-04-02T06:46:28.196Z,10.82
2023-04-02T06:49:11.628Z,13.80
2023-04-02T06:51:39.946Z,11.07
2023-04-02T06:54:14.010Z,13.73
2023-04-02T06:56:48.066Z,9.40
2023-04-02T06:59:20.955Z,9.13
2023-04-02T07:02:06.543Z,12.88
2023-04-02T07:04:34.305Z,11.48
2023-04-02T07:07:01.660Z,11.68
2023-04-02T07:09:32.276Z,9.73
2023-04-02T07:12:01.573Z,12.15
2023-04-02T07:14:28.066Z,11.82
2023-04-02T07:16:54.553Z,10.38
2023-04-02T07:19:22.828Z,11.60
2023-04-02T07:21:53.541Z,13.57
2023-04-02T07:24:21.437Z,9.23
2023-04-02T07:26:48.198Z,10.63
2023-04-02T07:29:16.164Z,11.40
2023-04-02T07:31:43.137Z,9.50
2023-04-02T07:34:10.194Z,9.63
2023-04-02T07:36:36.804Z,7.97
2023-04-02T07:39:03.847Z,8.38
2023-04-02T07:41:30.251Z,12.75
2023-04-02T07:43:56.710Z,9.98
2023-04-02T07:46:23.136Z,10.90
2023-04-02T07:48:49.672Z,13.40
2023-04-02T07:51:21.608Z,12.07
2023-04-02T07:53:54.753Z,13.60
2023-04-02T07:56:22.827Z,9.68
2023-04-02T07:58:49.372Z,10.57
2023-04-02T08:01:24.006Z,9.60
2023-04-02T08:03:53.060Z,9.48
2023-04-02T08:06:21.694Z,7.97
2023-04-02T08:08:48.296Z,11.85
2023-04-02T08:11:15.140Z,7.63
2023-04-02T08:13:41.862Z,12.35
2023-04-02T08:16:09.415Z,9.98
2023-04-02T08:18:36.518Z,9.73
2023-04-02T08:21:03.271Z,8.38
2023-04-02T08:23:29.814Z,9.52
2023-04-02T08:25:56.500Z,11.55
2023-04-02T08:28:23.304Z,11.35
2023-04-02T08:30:50.075Z,13.05
2023-04-02T08:33:17.905Z,11.52
2023-04-02T08:35:48.977Z,11.30
2023-04-02T08:38:17.700Z,9.38
2023-04-02T08:40:47.656Z,9.35
2023-04-02T08:43:49.687Z,10.50
2023-04-02T08:46:37.533Z,10.80
2023-04-02T08:49:13.744Z,11.52
2023-04-02T08:51:40.442Z,9.02
2023-04-02T08:54:30.590Z,9.55
2023-04-02T08:57:04.043Z,10.95
2023-04-02T08:59:40.172Z,8.65
2023-04-02T09:02:22.000Z,10.57
2023-04-02T09:04:49.084Z,12.60
2023-04-02T09:07:16.909Z,13.75
2023-04-02T09:09:45.512Z,8.68
2023-04-02T09:12:29.854Z,8.30
2023-04-02T09:15:11.007Z,6.18
2023-04-02T09:17:50.399Z,9.45
2023-04-02T09:20:24.448Z,9.88
2023-04-02T09:22:53.058Z,9.52
2023-04-02T09:25:31.948Z,7.32
2023-04-02T09:28:02.864Z,8.98
2023-04-02T09:30:32.406Z,10.50
2023-04-02T09:33:07.332Z,11.07
2023-04-02T09:35:36.777Z,8.27
2023-04-02T09:38:18.294Z,8.68
2023-04-02T09:40:53.773Z,9.85
2023-04-02T09:43:32.001Z,9.95
2023-04-02T09:46:13.837Z,10.63
2023-04-02T09:48:53.027Z,10.50
2023-04-02T09:51:22.906Z,7.25
2023-04-02T09:54:16.391Z,6.80
2023-04-02T09:57:01.558Z,9.90
2023-04-02T09:59:28.410Z,10.15
2023-04-02T10:01:54.774Z,10.32
2023-04-02T10:04:47.077Z,7.00
2023-04-02T10:07:39.151Z,6.18
2023-04-02T10:10:42.742Z,5.80
2023-04-02T10:13:19.409Z,8.00
2023-04-02T10:16:08.607Z,10.70
2023-04-02T10:18:56.137Z,8.18
2023-04-02T10:21:28.734Z,5.47
2023-04-02T10:23:55.735Z,6.00
2023-04-02T10:26:22.056Z,6.65
2023-04-02T10:29:07.236Z,7.07
2023-04-02T10:32:00.287Z,8.10
2023-04-02T10:34:44.257Z,9.52
2023-04-02T10:37:35.765Z,7.57
2023-04-02T10:40:26.752Z,5.65
2023-04-02T10:43:24.915Z,7.35
2023-04-02T10:46:00.367Z,8.00
2023-04-02T10:48:45.468Z,9.02
2023-04-02T10:51:16.634Z,8.10
2023-04-02T10:53:57.328Z,9.13
2023-04-02T10:56:28.518Z,7.88
2023-04-02T10:59:12.810Z,7.75
2023-04-02T11:01:42.151Z,7.75
2023-04-02T11:04:18.871Z,6.78
2023-04-02T11:06:51.769Z,7.82
2023-04-02T11:09:24.760Z,6.72
2023-04-02T11:11:55.015Z,6.45
2023-04-02T11:14:26.682Z,7.65
2023-04-02T11:16:55.199Z,5.22
2023-04-02T11:19:29.028Z,4.97
2023-04-02T11:22:06.669Z,5.90
2023-04-02T11:24:44.367Z,6.65
2023-04-02T11:27:26.067Z,4.55
2023-04-02T11:30:02.970Z,4.47
2023-04-02T11:32:35.630Z,7.22
2023-04-02T11:35:24.816Z,5.13
2023-04-02T11:37:52.239Z,8.98
2023-04-02T11:40:18.565Z,5.05
2023-04-02T11:42:47.147Z,4.95
2023-04-02T11:45:28.792Z,5.93
2023-04-02T11:48:01.122Z,6.82
2023-04-02T11:50:31.198Z,11.13
2023-04-02T11:53:02.665Z,8.32
2023-04-02T11:55:37.364Z,6.68
2023-04-02T11:58:26.431Z,10.38
2023-04-02T12:01:22.565Z,4.97
2023-04-02T12:04:04.190Z,4.60
2023-04-02T12:06:46.597Z,6.88
2023-04-02T12:09:18.917Z,5.22
2023-04-02T12:11:47.206Z,9.18
2023-04-02T12:14:48.318Z,6.45
2023-04-02T12:17:21.365Z,7.20
2023-04-02T12:19:54.556Z,5.63
2023-04-02T12:22:28.306Z,4.38
2023-04-02T12:24:59.509Z,4.03
2023-04-02T12:27:28.329Z,6.78
2023-04-02T12:30:10.100Z,3.97
2023-04-02T12:32:36.761Z,5.45
2023-04-02T12:35:04.524Z,7.40
2023-04-02T12:37:31.342Z,8.18
2023-04-02T12:39:59.332Z,8.27
2023-04-02T12:42:28.040Z,5.95
2023-04-02T12:44:54.483Z,6.90
2023-04-02T12:47:21.089Z,7.13
2023-04-02T12:49:48.214Z,4.93
2023-04-02T12:52:17.643Z,7.22
2023-04-02T12:54:49.876Z,6.15
2023-04-02T12:57:26.591Z,5.07
2023-04-02T12:59:55.425Z,6.60
2023-04-02T13:02:24.577Z,6.10
2023-04-02T13:04:56.932Z,6.00
2023-04-02T13:07:26.198Z,5.15
2023-04-02T13:09:55.269Z,5.88
2023-04-02T13:12:33.491Z,5.18
2023-04-02T13:15:03.141Z,4.90
2023-04-02T13:18:13.949Z,4.15
2023-04-02T13:20:42.018Z,4.70
2023-04-02T13:23:26.884Z,3.67
2023-04-02T13:25:55.786Z,4.63
2023-04-02T13:28:22.258Z,4.85
2023-04-02T13:30:48.968Z,4.45
2023-04-02T13:33:16.606Z,4.93
2023-04-02T13:35:43.867Z,5.35
2023-04-02T13:38:10.304Z,6.78
2023-04-02T13:40:38.298Z,6.15
2023-04-02T13:43:06.322Z,11.77
2023-04-02T13:45:40.733Z,7.53
2023-04-02T13:48:14.331Z,6.80
2023-04-02T13:50:41.157Z,5.10
2023-04-02T13:53:13.034Z,5.68
2023-04-02T13:55:42.476Z,6.25
2023-04-02T13:58:10.599Z,6.25
2023-04-02T14:00:39.920Z,8.52
2023-04-02T14:03:10.978Z,7.20
2023-04-02T14:05:59.229Z,3.45
2023-04-02T14:08:44.382Z,4.75
2023-04-02T14:11:21.762Z,4.75
2023-04-02T14:14:12.183Z,6.35
2023-04-02T14:17:23.297Z,4.38
2023-04-02T14:19:58.913Z,4.18
2023-04-02T14:23:02.881Z,3.97
2023-04-02T14:25:41.820Z,6.10
2023-04-02T14:28:22.053Z,6.65
2023-04-02T14:31:18.410Z,4.97
2023-04-02T14:33:56.193Z,6.70
2023-04-02T14:36:31.746Z,6.05
2023-04-02T14:39:33.995Z,4.82
2023-04-02T14:42:16.515Z,4.95
2023-04-02T14:44:50.120Z,3.85
2023-04-02T14:47:23.143Z,4.93
2023-04-02T14:49:54.756Z,4.55
2023-04-02T14:52:23.495Z,4.32
2023-04-02T14:54:59.754Z,4.50
2023-04-02T14:57:48.932Z,5.97
2023-04-02T15:00:37.650Z,3.92
2023-04-02T15:03:23.527Z,4.60
2023-04-02T15:05:56.944Z,3.95
2023-04-02T15:10:58.157Z,3.88
2023-04-02T15:13:57.133Z,4.57
2023-04-02T15:16:26.796Z,3.70
2023-04-02T15:18:56.341Z,3.67
2023-04-02T15:21:23.075Z,4.20
2023-04-02T15:24:07.781Z,5.05
2023-04-02T15:27:02.817Z,5.55
2023-04-02T15:29:49.734Z,3.90
2023-04-02T15:32:35.153Z,5.45
2023-04-02T15:35:10.948Z,4.03
2023-04-02T15:37:40.086Z,5.93
2023-04-02T15:40:30.964Z,4.90
2023-04-02T15:43:14.064Z,3.45
2023-04-02T15:45:58.801Z,4.50
2023-04-02T15:49:02.830Z,4.88
2023-04-02T15:51:49.861Z,4.03
2023-04-02T15:54:39.228Z,4.47
2023-04-02T15:57:43.159Z,5.03
2023-04-02T16:00:48.442Z,4.22
2023-04-02T16:03:33.211Z,4.47
2023-04-02T16:06:05.557Z,4.00
2023-04-02T16:08:48.107Z,4.57
2023-04-02T16:11:15.020Z,3.92
2023-04-02T16:13:42.700Z,3.85
2023-04-02T16:16:26.575Z,3.05
2023-04-02T16:19:16.018Z,3.17
2023-04-02T16:21:49.008Z,6.60
2023-04-02T16:24:15.545Z,3.67
2023-04-02T16:27:04.021Z,2.72
2023-04-02T16:29:55.693Z,4.13
2023-04-02T16:32:44.371Z,5.35
2023-04-02T16:35:43.057Z,3.78
2023-04-02T16:38:31.419Z,3.72
2023-04-02T16:41:08.760Z,4.15
2023-04-02T16:44:00.672Z,3.00
2023-04-02T16:46:54.368Z,4.03
2023-04-02T16:49:31.143Z,4.50
2023-04-02T16:52:20.977Z,4.85
2023-04-02T16:55:12.494Z,3.60
2023-04-02T16:58:20.682Z,5.63
2023-04-02T17:00:52.631Z,5.75
2023-04-02T17:03:45.199Z,5.05
2023-04-02T17:06:24.077Z,4.25
2023-04-02T17:09:12.836Z,3.60
2023-04-02T17:11:45.390Z,4.35
2023-04-02T17:14:38.616Z,3.87
2023-04-02T17:17:05.820Z,4.63
2023-04-02T17:19:33.001Z,4.32
2023-04-02T17:22:03.147Z,3.60
2023-04-02T17:24:40.855Z,6.03
2023-04-02T17:27:19.847Z,4.63
2023-04-02T17:29:52.590Z,4.10
2023-04-02T17:32:29.995Z,3.92
2023-04-02T17:34:57.766Z,4.40
2023-04-02T17:37:42.708Z,4.55
2023-04-02T17:40:24.485Z,3.10
2023-04-02T17:43:13.210Z,4.32
2023-04-02T17:45:53.215Z,3.83
2023-04-02T17:48:44.652Z,2.42
2023-04-02T17:51:36.945Z,4.93
2023-04-02T17:54:21.269Z,6.15
2023-04-02T17:56:57.450Z,4.05
2023-04-02T17:59:39.147Z,4.95
2023-04-02T18:02:37.697Z,4.32
2023-04-02T18:05:17.246Z,4.97
2023-04-02T18:07:58.672Z,4.72
2023-04-02T18:10:31.338Z,4.30
2023-04-02T18:13:13.572Z,4.90
2023-04-02T18:16:01.940Z,4.68
2023-04-02T18:18:43.603Z,5.00
2023-04-02T18:21:25.656Z,5.72
2023-04-02T18:24:27.722Z,6.25
2023-04-02T18:27:09.405Z,4.03
2023-04-02T18:29:45.821Z,5.53
2023-04-02T18:32:33.743Z,4.75
2023-04-02T18:35:00.518Z,6.03
2023-04-02T18:37:52.865Z,5.95
2023-04-02T18:41:04.071Z,4.43
2023-04-02T18:43:56.388Z,6.50
2023-04-02T18:46:53.151Z,4.93
2023-04-02T18:49:19.490Z,5.35
2023-04-02T18:51:49.059Z,5.55
2023-04-02T18:54:33.187Z,5.82
2023-04-02T18:57:08.187Z,5.55
2023-04-02T18:59:42.324Z,5.15
2023-04-02T19:02:25.911Z,5.43
2023-04-02T19:07:35.927Z,6.40
2023-04-02T19:10:28.522Z,5.72
2023-04-02T19:12:54.934Z,6.35
2023-04-02T19:15:22.361Z,5.53
2023-04-02T19:18:07.948Z,6.50
2023-04-02T19:20:46.172Z,5.43
2023-04-02T19:23:38.273Z,8.00
2023-04-02T19:26:18.279Z,6.00
2023-04-02T19:29:13.662Z,6.50
2023-04-02T19:31:54.453Z,6.63
2023-04-02T19:34:32.003Z,8.45
2023-04-02T19:37:11.277Z,6.88
2023-04-02T19:39:46.573Z,9.13
2023-04-02T19:42:25.347Z,6.32
2023-04-02T19:44:53.766Z,10.75
2023-04-02T19:47:20.596Z,6.45
2023-04-02T19:49:47.079Z,7.70
2023-04-02T19:52:13.502Z,9.80
2023-04-02T19:54:39.928Z,7.35
2023-04-02T19:57:06.593Z,8.88
2023-04-02T19:59:33.177Z,8.77
2023-04-02T20:02:01.992Z,8.07
2023-04-02T20:04:28.384Z,7.78
2023-04-02T20:06:54.830Z,10.18
2023-04-02T20:09:21.713Z,14.07
2023-04-02T20:11:48.793Z,13.38
2023-04-02T20:14:15.346Z,12.00
2023-04-02T20:16:43.282Z,10.65
2023-04-02T20:19:10.998Z,9.82
2023-04-02T20:21:38.074Z,10.10
2023-04-02T20:24:08.274Z,10.48
2023-04-02T20:26:36.005Z,9.50
2023-04-02T20:29:02.441Z,10.05
2023-04-02T20:31:30.600Z,9.25
2023-04-02T20:33:57.839Z,9.35
2023-04-02T20:36:24.850Z,12.07
2023-04-02T20:38:52.358Z,9.35
2023-04-02T20:41:19.509Z,9.82
2023-04-02T20:43:45.948Z,8.95
2023-04-02T20:46:12.859Z,11.10
2023-04-02T20:48:39.713Z,9.82
2023-04-02T20:51:08.310Z,11.93
2023-04-02T20:53:36.811Z,10.15
2023-04-02T20:56:09.985Z,10.80
2023-04-02T20:58:37.550Z,12.15
2023-04-02T21:01:09.875Z,15.70
2023-04-02T21:03:36.739Z,11.57
2023-04-02T21:06:03.965Z,12.60
2023-04-02T21:08:30.643Z,11.23
2023-04-02T21:11:06.026Z,10.18
2023-04-02T21:13:36.102Z,10.30
2023-04-02T21:16:12.020Z,10.70
2023-04-02T21:18:38.786Z,14.60
2023-04-02T21:21:06.141Z,9.43
2023-04-02T21:23:33.178Z,13.30
2023-04-02T21:26:03.132Z,15.20
2023-04-02T21:28:29.860Z,13.18
2023-04-02T21:31:12.845Z,12.02
2023-04-02T21:33:46.049Z,12.80
2023-04-02T21:36:15.203Z,13.57
2023-04-02T21:38:43.168Z,12.32
2023-04-02T21:41:22.232Z,11.23
2023-04-02T21:43:49.226Z,12.90
2023-04-02T21:46:21.559Z,11.13
2023-04-02T21:48:49.397Z,12.80
2023-04-02T21:51:19.004Z,11.48
2023-04-02T21:53:45.944Z,12.00
2023-04-02T21:56:15.493Z,13.43
2023-04-02T21:58:43.375Z,13.90
2023-04-02T22:01:20.179Z,11.95
2023-04-02T22:03:53.826Z,14.00
2023-04-02T22:06:21.923Z,15.65
2023-04-02T22:09:02.790Z,14.63
2023-04-02T22:11:39.085Z,13.77
2023-04-02T22:14:06.170Z,19.02
2023-04-02T22:16:35.309Z,22.35
2023-04-02T22:19:04.393Z,25.77
2023-04-02T22:21:32.513Z,31.45
2023-04-02T22:24:01.508Z,37.83
2023-04-02T22:26:28.537Z,46.08
2023-04-02T22:28:55.150Z,35.30
2023-04-02T22:31:24.144Z,32.08
2023-04-02T22:33:51.703Z,31.83
2023-04-02T22:36:19.916Z,28.38
2023-04-02T22:38:46.519Z,28.42
2023-04-02T22:41:16.022Z,25.40
2023-04-02T22:43:43.949Z,21.17
2023-04-02T22:46:12.349Z,22.52
2023-04-02T22:48:41.446Z,18.73
2023-04-02T22:51:09.660Z,20.63
2023-04-02T22:53:37.146Z,21.23
2023-04-02T22:56:16.539Z,20.27
2023-04-02T22:58:43.759Z,16.92
2023-04-02T23:01:15.779Z,16.20
2023-04-02T23:03:42.757Z,21.65
2023-04-02T23:06:14.685Z,19.92
2023-04-02T23:08:41.354Z,21.35
2023-04-02T23:11:09.699Z,23.80
2023-04-02T23:13:36.696Z,22.27
2023-04-02T23:16:05.778Z,21.88
2023-04-02T23:18:33.860Z,19.33
2023-04-02T23:21:00.692Z,19.60
2023-04-02T23:23:27.431Z,18.98
2023-04-02T23:26:15.560Z,20.00
2023-04-02T23:28:42.521Z,18.20
2023-04-02T23:31:12.987Z,21.00
2023-04-02T23:33:39.532Z,19.40
2023-04-02T23:36:16.266Z,18.45
2023-04-02T23:38:42.732Z,19.58
2023-04-02T23:41:13.928Z,19.40
2023-04-02T23:43:40.428Z,17.23
2023-04-02T23:46:06.922Z,17.73
2023-04-02T23:48:33.370Z,18.60
2023-04-02T23:50:59.829Z,19.13
2023-04-02T23:53:26.294Z,21.25
2023-04-02T23:55:52.667Z,18.98
2023-04-02T23:58:19.120Z,21.33
